Pagrindinis puslapis
METAR-TAF:

METAR-TAF

Oro uostai :

Wink, Teksasas, Jungtinės Amerikos Valstijos

platuma: 31-46-47N, ilguma: 103-12-05W, Aukštis: 860 m

Dabartinis oras

Ataskaita buvo paskelbta 23 minutes, ne 10:53 UTC
Vėjas 4 kt iš Šiaurės Vakarų
Temperatūra 16°C
Drėgmė 59%
Slėgis 1023 hPa
Matomumas: 16.1 km
Giedras dangus

METAR: KINK 291053Z AUTO 32004KT 10SM CLR 16/08 A3022 RMK AO2 SLP192 T01610078 $

Laikas: 06:16 (11:16 UTC)

Prognozė

Ataskaita buvo paskelbta 5 valandos ir 56 minutes, ne 05:20 UTC
Prognozė galioja nuo 29 metu 06 UTC su 30 metu 06 UTC
Vėjas 10 kt iš Rytų/Pietryčių
Matomumas: 10 km
Mažai debesys ne aukštis 25000 ft

TAF: KINK 290520Z 2906/3006 11010KT P6SM FEW250

Orai ataskaitas ir orų prognozės (METAR, TAF).

turimą stotys yra geltonos ir raudonos taškus žemėlapyje.

Perkelti pele per norėdami pamatyti stoties vardą.

Tada spustelėkite, norėdami matyti oro stebėjimo ir prognozės.

Norėdami pakeisti žemėlapį: spustelėkite ant žalios mygtukų su juodo kryžiaus žemyn,; žalią mygtuką su brūkšneliu, jei norite nutolinti; arba žalių rodyklių gretimoms žemėlapius.


METAR-TAF: